sensor_id;sensor_type;location;lat;lon;timestamp;pressure;altitude;pressure_sealevel;temperature;humidity
51526;BME280;37611;51.794;21.590;2023-06-10T00:00:37;99860.21;;;19.34;75.70
51526;BME280;37611;51.794;21.590;2023-06-10T00:04:59;99856.58;;;19.40;74.97
51526;BME280;37611;51.794;21.590;2023-06-10T00:09:06;99856.31;;;19.41;74.59
51526;BME280;37611;51.794;21.590;2023-06-10T00:13:13;99853.71;;;19.38;74.68
51526;BME280;37611;51.794;21.590;2023-06-10T00:17:16;99850.94;;;19.35;74.87
51526;BME280;37611;51.794;21.590;2023-06-10T00:21:18;99849.38;;;19.31;75.05
51526;BME280;37611;51.794;21.590;2023-06-10T00:25:20;99850.05;;;19.26;75.46
51526;BME280;37611;51.794;21.590;2023-06-10T00:29:24;99847.00;;;19.20;76.27
51526;BME280;37611;51.794;21.590;2023-06-10T00:33:28;99847.03;;;19.14;77.33
51526;BME280;37611;51.794;21.590;2023-06-10T00:37:32;99846.45;;;19.06;78.40
51526;BME280;37611;51.794;21.590;2023-06-10T00:41:37;99849.11;;;18.97;79.30
51526;BME280;37611;51.794;21.590;2023-06-10T00:45:39;99845.48;;;18.92;79.36
51526;BME280;37611;51.794;21.590;2023-06-10T00:49:42;99848.08;;;18.88;79.46
51526;BME280;37611;51.794;21.590;2023-06-10T00:53:46;99850.21;;;18.84;79.63
51526;BME280;37611;51.794;21.590;2023-06-10T00:57:53;99853.50;;;18.80;79.64
51526;BME280;37611;51.794;21.590;2023-06-10T01:02:03;99858.95;;;18.78;79.45
51526;BME280;37611;51.794;21.590;2023-06-10T01:06:21;99864.33;;;18.75;79.33
51526;BME280;37611;51.794;21.590;2023-06-10T01:10:33;99864.21;;;18.74;78.85
51526;BME280;37611;51.794;21.590;2023-06-10T01:14:38;99869.93;;;18.71;78.61
51526;BME280;37611;51.794;21.590;2023-06-10T01:18:46;99867.34;;;18.65;78.55
51526;BME280;37611;51.794;21.590;2023-06-10T01:22:55;99865.43;;;18.58;78.74
51526;BME280;37611;51.794;21.590;2023-06-10T01:27:01;99864.75;;;18.52;79.01
51526;BME280;37611;51.794;21.590;2023-06-10T01:35:39;99877.65;;;18.43;79.43
51526;BME280;37611;51.794;21.590;2023-06-10T01:39:42;99881.58;;;18.38;79.54
51526;BME280;37611;51.794;21.590;2023-06-10T01:43:48;99888.54;;;18.34;79.31
51526;BME280;37611;51.794;21.590;2023-06-10T01:47:51;99891.23;;;18.30;79.15
51526;BME280;37611;51.794;21.590;2023-06-10T01:51:56;99893.41;;;18.25;79.31
51526;BME280;37611;51.794;21.590;2023-06-10T01:55:58;99895.29;;;18.19;79.38
51526;BME280;37611;51.794;21.590;2023-06-10T02:00:00;99895.05;;;18.17;79.97
51526;BME280;37611;51.794;21.590;2023-06-10T02:04:04;99896.77;;;18.12;80.10
51526;BME280;37611;51.794;21.590;2023-06-10T02:08:07;99898.10;;;18.07;80.07
51526;BME280;37611;51.794;21.590;2023-06-10T02:12:10;99901.73;;;18.04;80.12
51526;BME280;37611;51.794;21.590;2023-06-10T02:16:31;99901.20;;;17.99;79.76
51526;BME280;37611;51.794;21.590;2023-06-10T02:20:42;99900.95;;;17.90;79.69
51526;BME280;37611;51.794;21.590;2023-06-10T02:24:47;99903.34;;;17.81;79.87
51526;BME280;37611;51.794;21.590;2023-06-10T02:28:49;99906.34;;;17.74;79.97
51526;BME280;37611;51.794;21.590;2023-06-10T02:32:53;99906.88;;;17.69;80.36
51526;BME280;37611;51.794;21.590;2023-06-10T02:36:57;99907.08;;;17.65;80.46
51526;BME280;37611;51.794;21.590;2023-06-10T02:41:02;99917.98;;;17.62;80.53
51526;BME280;37611;51.794;21.590;2023-06-10T02:45:07;99925.04;;;17.59;80.50
51526;BME280;37611;51.794;21.590;2023-06-10T02:49:11;99927.80;;;17.55;80.28
51526;BME280;37611;51.794;21.590;2023-06-10T02:53:13;99934.61;;;17.53;80.04
51526;BME280;37611;51.794;21.590;2023-06-10T02:57:20;99940.45;;;17.49;79.85
51526;BME280;37611;51.794;21.590;2023-06-10T03:01:22;99953.14;;;17.44;79.81
51526;BME280;37611;51.794;21.590;2023-06-10T03:05:31;99954.51;;;17.39;79.80
51526;BME280;37611;51.794;21.590;2023-06-10T03:09:35;99958.41;;;17.37;79.83
51526;BME280;37611;51.794;21.590;2023-06-10T03:13:46;99959.70;;;17.35;79.77
51526;BME280;37611;51.794;21.590;2023-06-10T03:18:02;99960.08;;;17.32;79.64
51526;BME280;37611;51.794;21.590;2023-06-10T03:22:19;99961.98;;;17.31;79.63
51526;BME280;37611;51.794;21.590;2023-06-10T03:26:26;99967.85;;;17.30;79.62
51526;BME280;37611;51.794;21.590;2023-06-10T03:30:29;99974.88;;;17.29;79.73
51526;BME280;37611;51.794;21.590;2023-06-10T03:34:32;99976.02;;;17.31;79.88
51526;BME280;37611;51.794;21.590;2023-06-10T03:38:35;99973.75;;;17.35;79.95
51526;BME280;37611;51.794;21.590;2023-06-10T03:42:40;99976.63;;;17.39;79.70
51526;BME280;37611;51.794;21.590;2023-06-10T03:46:55;99980.08;;;17.41;79.43
51526;BME280;37611;51.794;21.590;2023-06-10T03:51:06;99980.73;;;17.44;79.17
51526;BME280;37611;51.794;21.590;2023-06-10T03:55:12;99986.30;;;17.46;79.11
51526;BME280;37611;51.794;21.590;2023-06-10T03:59:16;99987.02;;;17.48;79.15
51526;BME280;37611;51.794;21.590;2023-06-10T04:03:21;99982.66;;;17.49;79.37
51526;BME280;37611;51.794;21.590;2023-06-10T04:07:24;99982.33;;;17.52;79.74
51526;BME280;37611;51.794;21.590;2023-06-10T04:11:31;99986.94;;;17.59;79.66
51526;BME280;37611;51.794;21.590;2023-06-10T04:15:43;99990.81;;;17.65;79.22
51526;BME280;37611;51.794;21.590;2023-06-10T04:19:51;99986.61;;;17.70;78.80
51526;BME280;37611;51.794;21.590;2023-06-10T04:28:18;99982.82;;;17.84;77.85
51526;BME280;37611;51.794;21.590;2023-06-10T04:32:20;99985.77;;;18.00;77.41
51526;BME280;37611;51.794;21.590;2023-06-10T04:36:23;99979.91;;;18.16;76.35
51526;BME280;37611;51.794;21.590;2023-06-10T04:40:28;99979.30;;;18.15;76.42
51526;BME280;37611;51.794;21.590;2023-06-10T04:44:48;99988.28;;;18.29;75.61
51526;BME280;37611;51.794;21.590;2023-06-10T04:48:51;99988.77;;;18.28;75.29
51526;BME280;37611;51.794;21.590;2023-06-10T04:52:56;99987.97;;;18.21;75.66
51526;BME280;37611;51.794;21.590;2023-06-10T04:57:04;99995.05;;;18.22;75.63
51526;BME280;37611;51.794;21.590;2023-06-10T05:01:15;99993.75;;;18.29;75.71
51526;BME280;37611;51.794;21.590;2023-06-10T05:05:19;99991.98;;;18.61;75.53
51526;BME280;37611;51.794;21.590;2023-06-10T05:09:21;99998.00;;;18.64;75.49
51526;BME280;37611;51.794;21.590;2023-06-10T05:13:31;99998.65;;;18.62;75.24
51526;BME280;37611;51.794;21.590;2023-06-10T05:17:35;99994.44;;;18.65;75.18
51526;BME280;37611;51.794;21.590;2023-06-10T05:21:38;99998.72;;;18.71;75.07
51526;BME280;37611;51.794;21.590;2023-06-10T05:25:54;100004.52;;;18.70;74.68
51526;BME280;37611;51.794;21.590;2023-06-10T05:29:58;100001.98;;;18.65;74.84
51526;BME280;37611;51.794;21.590;2023-06-10T05:34:13;100006.11;;;18.66;75.29
51526;BME280;37611;51.794;21.590;2023-06-10T05:38:19;100008.15;;;18.67;75.25
51526;BME280;37611;51.794;21.590;2023-06-10T05:42:22;100008.10;;;18.65;75.41
51526;BME280;37611;51.794;21.590;2023-06-10T05:46:24;100004.73;;;18.71;75.33
51526;BME280;37611;51.794;21.590;2023-06-10T05:50:26;100005.48;;;18.76;75.59
51526;BME280;37611;51.794;21.590;2023-06-10T05:54:28;100007.03;;;18.83;75.50
51526;BME280;37611;51.794;21.590;2023-06-10T05:58:53;100015.11;;;18.84;75.72
51526;BME280;37611;51.794;21.590;2023-06-10T06:02:54;100015.46;;;18.90;75.88
51526;BME280;37611;51.794;21.590;2023-06-10T06:06:59;100016.32;;;18.94;75.98
51526;BME280;37611;51.794;21.590;2023-06-10T06:11:01;100016.39;;;18.99;76.17
51526;BME280;37611;51.794;21.590;2023-06-10T06:15:03;100015.09;;;18.99;76.08
51526;BME280;37611;51.794;21.590;2023-06-10T06:19:09;100015.45;;;19.02;75.39
51526;BME280;37611;51.794;21.590;2023-06-10T06:23:15;100012.26;;;19.05;75.62
51526;BME280;37611;51.794;21.590;2023-06-10T06:27:37;100016.89;;;19.19;75.28
51526;BME280;37611;51.794;21.590;2023-06-10T06:32:19;100018.63;;;19.64;74.66
51526;BME280;37611;51.794;21.590;2023-06-10T06:36:22;100016.90;;;20.04;73.49
51526;BME280;37611;51.794;21.590;2023-06-10T06:40:23;100023.29;;;20.57;71.72
51526;BME280;37611;51.794;21.590;2023-06-10T06:44:25;100025.61;;;20.75;70.44
51526;BME280;37611;51.794;21.590;2023-06-10T06:48:27;100021.10;;;20.88;69.96
51526;BME280;37611;51.794;21.590;2023-06-10T06:52:29;100031.65;;;20.89;69.38
51526;BME280;37611;51.794;21.590;2023-06-10T06:56:31;100034.43;;;20.97;69.65
51526;BME280;37611;51.794;21.590;2023-06-10T07:00:33;100037.95;;;21.10;69.00
51526;BME280;37611;51.794;21.590;2023-06-10T07:04:34;100035.69;;;21.19;69.28
51526;BME280;37611;51.794;21.590;2023-06-10T07:08:36;100038.54;;;21.33;69.17
51526;BME280;37611;51.794;21.590;2023-06-10T07:12:38;100046.19;;;21.45;69.00
51526;BME280;37611;51.794;21.590;2023-06-10T07:16:39;100046.61;;;21.59;68.60
51526;BME280;37611;51.794;21.590;2023-06-10T07:20:41;100047.11;;;21.70;68.08
51526;BME280;37611;51.794;21.590;2023-06-10T07:24:43;100045.95;;;21.77;67.90
51526;BME280;37611;51.794;21.590;2023-06-10T07:28:45;100044.88;;;21.92;67.90
51526;BME280;37611;51.794;21.590;2023-06-10T07:32:46;100046.51;;;22.07;66.95
51526;BME280;37611;51.794;21.590;2023-06-10T07:36:48;100045.00;;;22.09;66.71
51526;BME280;37611;51.794;21.590;2023-06-10T07:40:50;100044.45;;;22.17;66.95
51526;BME280;37611;51.794;21.590;2023-06-10T07:44:51;100047.68;;;22.32;67.20
51526;BME280;37611;51.794;21.590;2023-06-10T07:48:54;100048.80;;;22.59;66.92
51526;BME280;37611;51.794;21.590;2023-06-10T07:52:56;100053.48;;;22.66;66.04
51526;BME280;37611;51.794;21.590;2023-06-10T07:56:57;100057.42;;;22.61;66.48
51526;BME280;37611;51.794;21.590;2023-06-10T08:00:59;100056.61;;;22.63;66.51
51526;BME280;37611;51.794;21.590;2023-06-10T08:05:01;100059.92;;;22.77;66.84
51526;BME280;37611;51.794;21.590;2023-06-10T08:09:03;100063.04;;;23.02;66.14
51526;BME280;37611;51.794;21.590;2023-06-10T08:13:05;100067.17;;;22.99;65.18
51526;BME280;37611;51.794;21.590;2023-06-10T08:17:06;100070.20;;;22.77;65.30
51526;BME280;37611;51.794;21.590;2023-06-10T08:21:08;100072.63;;;22.63;65.56
51526;BME280;37611;51.794;21.590;2023-06-10T08:25:10;100073.76;;;22.59;66.23
51526;BME280;37611;51.794;21.590;2023-06-10T08:29:12;100073.21;;;22.70;66.05
51526;BME280;37611;51.794;21.590;2023-06-10T08:33:15;100073.44;;;22.85;65.77
51526;BME280;37611;51.794;21.590;2023-06-10T08:37:16;100076.02;;;22.83;65.03
51526;BME280;37611;51.794;21.590;2023-06-10T08:41:18;100075.02;;;22.68;65.23
51526;BME280;37611;51.794;21.590;2023-06-10T08:45:22;100079.29;;;22.70;65.52
51526;BME280;37611;51.794;21.590;2023-06-10T08:49:26;100078.41;;;22.67;65.15
51526;BME280;37611;51.794;21.590;2023-06-10T08:53:30;100077.34;;;22.67;64.64
51526;BME280;37611;51.794;21.590;2023-06-10T08:57:33;100080.21;;;22.68;64.70
51526;BME280;37611;51.794;21.590;2023-06-10T09:01:35;100083.88;;;22.82;64.29
51526;BME280;37611;51.794;21.590;2023-06-10T09:05:38;100082.69;;;22.86;64.03
51526;BME280;37611;51.794;21.590;2023-06-10T09:09:40;100081.96;;;22.92;63.93
51526;BME280;37611;51.794;21.590;2023-06-10T09:13:43;100080.81;;;23.05;64.03
51526;BME280;37611;51.794;21.590;2023-06-10T09:17:45;100085.79;;;23.25;63.93
51526;BME280;37611;51.794;21.590;2023-06-10T09:21:47;100088.11;;;23.42;62.17
51526;BME280;37611;51.794;21.590;2023-06-10T09:25:56;100091.95;;;23.35;61.47
51526;BME280;37611;51.794;21.590;2023-06-10T09:29:59;100093.64;;;23.31;61.72
51526;BME280;37611;51.794;21.590;2023-06-10T09:34:24;100091.10;;;23.45;60.83
51526;BME280;37611;51.794;21.590;2023-06-10T09:38:30;100093.55;;;23.49;60.06
51526;BME280;37611;51.794;21.590;2023-06-10T09:42:37;100092.32;;;23.42;59.47
51526;BME280;37611;51.794;21.590;2023-06-10T09:46:40;100099.98;;;23.34;58.99
51526;BME280;37611;51.794;21.590;2023-06-10T09:50:43;100104.86;;;23.20;59.28
51526;BME280;37611;51.794;21.590;2023-06-10T09:54:45;100104.58;;;23.27;59.41
51526;BME280;37611;51.794;21.590;2023-06-10T09:58:53;100100.95;;;23.34;59.19
51526;BME280;37611;51.794;21.590;2023-06-10T10:02:54;100093.81;;;23.44;59.14
51526;BME280;37611;51.794;21.590;2023-06-10T10:06:57;100093.45;;;23.57;59.67
51526;BME280;37611;51.794;21.590;2023-06-10T10:11:01;100090.19;;;23.73;59.28
51526;BME280;37611;51.794;21.590;2023-06-10T10:15:09;100094.27;;;23.76;58.95
51526;BME280;37611;51.794;21.590;2023-06-10T10:19:16;100095.54;;;23.70;58.69
51526;BME280;37611;51.794;21.590;2023-06-10T10:23:29;100093.90;;;23.74;58.65
51526;BME280;37611;51.794;21.590;2023-06-10T10:27:36;100088.68;;;23.81;57.39
51526;BME280;37611;51.794;21.590;2023-06-10T10:31:43;100084.70;;;23.82;57.13
51526;BME280;37611;51.794;21.590;2023-06-10T10:35:48;100086.54;;;23.91;55.07
51526;BME280;37611;51.794;21.590;2023-06-10T10:39:51;100085.71;;;23.90;53.43
51526;BME280;37611;51.794;21.590;2023-06-10T10:43:53;100087.63;;;23.86;53.77
51526;BME280;37611;51.794;21.590;2023-06-10T10:47:55;100084.77;;;23.91;53.86
51526;BME280;37611;51.794;21.590;2023-06-10T10:52:02;100088.28;;;23.95;53.71
51526;BME280;37611;51.794;21.590;2023-06-10T10:56:15;100092.79;;;23.85;53.40
51526;BME280;37611;51.794;21.590;2023-06-10T11:00:43;100092.79;;;23.76;54.01
51526;BME280;37611;51.794;21.590;2023-06-10T11:04:48;100089.15;;;23.83;54.43
51526;BME280;37611;51.794;21.590;2023-06-10T11:08:50;100087.08;;;23.81;54.43
51526;BME280;37611;51.794;21.590;2023-06-10T11:12:53;100085.23;;;23.77;54.96
51526;BME280;37611;51.794;21.590;2023-06-10T11:16:59;100086.25;;;23.70;54.93
51526;BME280;37611;51.794;21.590;2023-06-10T11:21:04;100083.66;;;23.72;55.13
51526;BME280;37611;51.794;21.590;2023-06-10T11:25:13;100088.52;;;23.81;54.94
51526;BME280;37611;51.794;21.590;2023-06-10T11:29:16;100091.86;;;23.79;55.11
51526;BME280;37611;51.794;21.590;2023-06-10T11:33:19;100096.67;;;23.68;55.36
51526;BME280;37611;51.794;21.590;2023-06-10T11:37:21;100096.86;;;23.48;55.56
51526;BME280;37611;51.794;21.590;2023-06-10T11:41:24;100101.08;;;23.33;56.70
51526;BME280;37611;51.794;21.590;2023-06-10T11:45:29;100107.16;;;23.13;57.52
51526;BME280;37611;51.794;21.590;2023-06-10T11:49:31;100107.14;;;22.95;58.34
51526;BME280;37611;51.794;21.590;2023-06-10T11:53:32;100102.13;;;22.84;58.46
51526;BME280;37611;51.794;21.590;2023-06-10T11:57:35;100098.80;;;22.79;58.71
51526;BME280;37611;51.794;21.590;2023-06-10T12:01:40;100097.06;;;22.87;58.34
51526;BME280;37611;51.794;21.590;2023-06-10T12:06:00;100092.87;;;22.86;57.17
51526;BME280;37611;51.794;21.590;2023-06-10T12:10:03;100091.80;;;22.96;56.96
51526;BME280;37611;51.794;21.590;2023-06-10T12:14:05;100090.15;;;23.17;56.54
51526;BME280;37611;51.794;21.590;2023-06-10T12:18:07;100094.86;;;23.43;55.86
51526;BME280;37611;51.794;21.590;2023-06-10T12:22:09;100095.94;;;23.48;54.31
51526;BME280;37611;51.794;21.590;2023-06-10T12:26:10;100096.16;;;23.37;54.63
51526;BME280;37611;51.794;21.590;2023-06-10T12:30:22;100102.80;;;23.33;54.81
51526;BME280;37611;51.794;21.590;2023-06-10T12:34:31;100101.77;;;23.19;54.46
51526;BME280;37611;51.794;21.590;2023-06-10T12:38:33;100094.42;;;23.14;54.75
51526;BME280;37611;51.794;21.590;2023-06-10T12:42:35;100091.21;;;23.28;54.30
51526;BME280;37611;51.794;21.590;2023-06-10T12:46:38;100093.89;;;23.40;53.06
51526;BME280;37611;51.794;21.590;2023-06-10T12:50:42;100091.41;;;23.49;52.41
51526;BME280;37611;51.794;21.590;2023-06-10T12:54:44;100091.75;;;23.50;52.01
51526;BME280;37611;51.794;21.590;2023-06-10T12:58:46;100086.65;;;23.52;52.12
51526;BME280;37611;51.794;21.590;2023-06-10T13:02:48;100086.03;;;23.61;51.69
51526;BME280;37611;51.794;21.590;2023-06-10T13:06:50;100084.21;;;23.59;51.27
51526;BME280;37611;51.794;21.590;2023-06-10T13:10:52;100087.98;;;23.49;50.97
51526;BME280;37611;51.794;21.590;2023-06-10T13:14:54;100082.02;;;23.53;51.58
51526;BME280;37611;51.794;21.590;2023-06-10T13:18:56;100077.05;;;23.62;51.61
51526;BME280;37611;51.794;21.590;2023-06-10T13:23:01;100079.13;;;23.59;52.11
51526;BME280;37611;51.794;21.590;2023-06-10T13:27:03;100077.67;;;23.70;52.19
51526;BME280;37611;51.794;21.590;2023-06-10T13:31:05;100075.30;;;23.77;52.09
51526;BME280;37611;51.794;21.590;2023-06-10T13:35:06;100077.67;;;23.83;52.43
51526;BME280;37611;51.794;21.590;2023-06-10T13:39:09;100080.40;;;23.88;52.76
51526;BME280;37611;51.794;21.590;2023-06-10T13:43:11;100080.25;;;23.86;52.72
51526;BME280;37611;51.794;21.590;2023-06-10T13:47:16;100082.66;;;23.70;52.76
51526;BME280;37611;51.794;21.590;2023-06-10T13:51:18;100081.02;;;23.42;53.50
51526;BME280;37611;51.794;21.590;2023-06-10T13:55:20;100083.61;;;23.24;54.10
51526;BME280;37611;51.794;21.590;2023-06-10T13:59:22;100083.79;;;23.04;54.87
51526;BME280;37611;51.794;21.590;2023-06-10T14:03:24;100085.05;;;23.00;55.87
51526;BME280;37611;51.794;21.590;2023-06-10T14:07:26;100082.52;;;22.90;56.26
51526;BME280;37611;51.794;21.590;2023-06-10T14:11:27;100080.12;;;22.82;57.02
51526;BME280;37611;51.794;21.590;2023-06-10T14:15:29;100073.55;;;22.81;57.63
51526;BME280;37611;51.794;21.590;2023-06-10T14:19:32;100071.88;;;22.88;58.18
51526;BME280;37611;51.794;21.590;2023-06-10T14:23:33;100071.95;;;23.00;58.16
51526;BME280;37611;51.794;21.590;2023-06-10T14:27:35;100066.77;;;23.00;57.82
51526;BME280;37611;51.794;21.590;2023-06-10T14:31:37;100065.47;;;22.95;57.83
51526;BME280;37611;51.794;21.590;2023-06-10T14:35:39;100069.20;;;22.94;58.24
51526;BME280;37611;51.794;21.590;2023-06-10T14:39:40;100075.87;;;22.97;58.20
51526;BME280;37611;51.794;21.590;2023-06-10T14:43:42;100078.00;;;22.93;58.56
51526;BME280;37611;51.794;21.590;2023-06-10T14:47:44;100064.33;;;22.95;58.86
51526;BME280;37611;51.794;21.590;2023-06-10T14:51:46;100063.08;;;22.98;58.78
51526;BME280;37611;51.794;21.590;2023-06-10T14:55:51;100058.23;;;23.00;58.87
51526;BME280;37611;51.794;21.590;2023-06-10T14:59:52;100057.30;;;22.99;58.92
51526;BME280;37611;51.794;21.590;2023-06-10T15:03:54;100062.41;;;22.98;59.36
51526;BME280;37611;51.794;21.590;2023-06-10T15:07:56;100067.64;;;22.96;59.37
51526;BME280;37611;51.794;21.590;2023-06-10T15:11:58;100064.98;;;22.95;59.61
51526;BME280;37611;51.794;21.590;2023-06-10T15:16:01;100066.04;;;22.96;59.73
51526;BME280;37611;51.794;21.590;2023-06-10T15:20:03;100066.91;;;22.91;60.08
51526;BME280;37611;51.794;21.590;2023-06-10T15:24:06;100073.71;;;22.89;59.96
51526;BME280;37611;51.794;21.590;2023-06-10T15:28:08;100071.85;;;22.84;60.02
51526;BME280;37611;51.794;21.590;2023-06-10T15:32:10;100070.41;;;22.79;60.60
51526;BME280;37611;51.794;21.590;2023-06-10T15:36:11;100071.56;;;22.82;61.05
51526;BME280;37611;51.794;21.590;2023-06-10T15:40:15;100072.77;;;22.83;61.04
51526;BME280;37611;51.794;21.590;2023-06-10T15:44:17;100072.64;;;22.81;61.18
51526;BME280;37611;51.794;21.590;2023-06-10T15:48:18;100071.71;;;22.80;61.51
51526;BME280;37611;51.794;21.590;2023-06-10T15:52:20;100078.70;;;22.72;61.52
51526;BME280;37611;51.794;21.590;2023-06-10T15:56:22;100083.72;;;22.54;61.90
51526;BME280;37611;51.794;21.590;2023-06-10T16:00:24;100086.73;;;22.33;62.63
51526;BME280;37611;51.794;21.590;2023-06-10T16:04:25;100086.77;;;22.24;63.15
51526;BME280;37611;51.794;21.590;2023-06-10T16:08:27;100087.80;;;22.18;63.27
51526;BME280;37611;51.794;21.590;2023-06-10T16:12:29;100087.48;;;22.17;63.18
51526;BME280;37611;51.794;21.590;2023-06-10T16:16:32;100082.39;;;22.19;63.08
51526;BME280;37611;51.794;21.590;2023-06-10T16:20:33;100086.66;;;22.20;62.34
51526;BME280;37611;51.794;21.590;2023-06-10T16:24:36;100093.23;;;22.21;61.44
51526;BME280;37611;51.794;21.590;2023-06-10T16:28:38;100092.97;;;22.25;60.51
51526;BME280;37611;51.794;21.590;2023-06-10T16:32:40;100096.98;;;22.30;59.70
51526;BME280;37611;51.794;21.590;2023-06-10T16:36:42;100098.11;;;22.36;58.88
51526;BME280;37611;51.794;21.590;2023-06-10T16:40:43;100100.39;;;22.37;58.38
51526;BME280;37611;51.794;21.590;2023-06-10T16:44:46;100104.70;;;22.42;58.45
51526;BME280;37611;51.794;21.590;2023-06-10T16:48:48;100113.63;;;22.45;58.65
51526;BME280;37611;51.794;21.590;2023-06-10T16:52:49;100119.85;;;22.28;58.02
51526;BME280;37611;51.794;21.590;2023-06-10T16:56:51;100124.85;;;21.98;58.98
51526;BME280;37611;51.794;21.590;2023-06-10T17:00:54;100129.80;;;21.75;60.83
51526;BME280;37611;51.794;21.590;2023-06-10T17:04:58;100130.63;;;21.60;62.88
51526;BME280;37611;51.794;21.590;2023-06-10T17:09:00;100128.95;;;21.44;64.11
51526;BME280;37611;51.794;21.590;2023-06-10T17:13:02;100125.16;;;21.29;64.95
51526;BME280;37611;51.794;21.590;2023-06-10T17:17:04;100133.08;;;21.14;66.11
51526;BME280;37611;51.794;21.590;2023-06-10T17:21:06;100135.91;;;21.00;66.10
51526;BME280;37611;51.794;21.590;2023-06-10T17:25:08;100134.25;;;20.85;66.10
51526;BME280;37611;51.794;21.590;2023-06-10T17:29:10;100141.14;;;20.75;66.22
51526;BME280;37611;51.794;21.590;2023-06-10T17:33:12;100143.64;;;20.69;66.25
51526;BME280;37611;51.794;21.590;2023-06-10T17:37:14;100149.82;;;20.65;66.16
51526;BME280;37611;51.794;21.590;2023-06-10T17:41:15;100145.67;;;20.58;66.14
51526;BME280;37611;51.794;21.590;2023-06-10T17:45:17;100152.15;;;20.50;66.51
51526;BME280;37611;51.794;21.590;2023-06-10T17:49:23;100163.14;;;20.40;66.54
51526;BME280;37611;51.794;21.590;2023-06-10T17:53:25;100161.90;;;20.35;66.64
51526;BME280;37611;51.794;21.590;2023-06-10T17:57:26;100165.58;;;20.28;66.21
51526;BME280;37611;51.794;21.590;2023-06-10T18:01:29;100160.00;;;20.24;66.14
51526;BME280;37611;51.794;21.590;2023-06-10T18:05:31;100169.10;;;20.19;66.18
51526;BME280;37611;51.794;21.590;2023-06-10T18:09:33;100177.30;;;20.09;66.42
51526;BME280;37611;51.794;21.590;2023-06-10T18:13:34;100177.56;;;20.02;66.51
51526;BME280;37611;51.794;21.590;2023-06-10T18:17:36;100182.35;;;19.91;67.18
51526;BME280;37611;51.794;21.590;2023-06-10T18:21:38;100182.82;;;19.79;67.58
51526;BME280;37611;51.794;21.590;2023-06-10T18:25:40;100187.52;;;19.68;68.28
51526;BME280;37611;51.794;21.590;2023-06-10T18:29:43;100190.90;;;19.58;68.62
51526;BME280;37611;51.794;21.590;2023-06-10T18:33:44;100192.98;;;19.51;69.27
51526;BME280;37611;51.794;21.590;2023-06-10T18:37:46;100198.57;;;19.39;70.33
51526;BME280;37611;51.794;21.590;2023-06-10T18:41:48;100205.20;;;19.25;70.98
51526;BME280;37611;51.794;21.590;2023-06-10T18:45:50;100209.70;;;19.16;71.79
51526;BME280;37611;51.794;21.590;2023-06-10T18:49:51;100209.19;;;19.08;72.44
51526;BME280;37611;51.794;21.590;2023-06-10T18:53:53;100216.88;;;19.02;72.83
51526;BME280;37611;51.794;21.590;2023-06-10T18:57:55;100219.07;;;18.94;73.33
51526;BME280;37611;51.794;21.590;2023-06-10T19:01:57;100224.37;;;18.84;73.80
51526;BME280;37611;51.794;21.590;2023-06-10T19:05:58;100227.52;;;18.75;73.94
51526;BME280;37611;51.794;21.590;2023-06-10T19:10:02;100234.65;;;18.68;74.10
51526;BME280;37611;51.794;21.590;2023-06-10T19:14:04;100234.54;;;18.61;75.06
51526;BME280;37611;51.794;21.590;2023-06-10T19:18:07;100245.42;;;18.53;75.48
51526;BME280;37611;51.794;21.590;2023-06-10T19:22:09;100250.44;;;18.47;75.95
51526;BME280;37611;51.794;21.590;2023-06-10T19:26:11;100254.67;;;18.45;76.34
51526;BME280;37611;51.794;21.590;2023-06-10T19:30:13;100259.23;;;18.38;77.19
51526;BME280;37611;51.794;21.590;2023-06-10T19:34:14;100258.69;;;18.29;77.81
51526;BME280;37611;51.794;21.590;2023-06-10T19:38:18;100262.47;;;18.18;78.31
51526;BME280;37611;51.794;21.590;2023-06-10T19:42:19;100268.38;;;18.07;78.82
51526;BME280;37611;51.794;21.590;2023-06-10T19:46:21;100269.86;;;17.98;80.14
51526;BME280;37611;51.794;21.590;2023-06-10T19:50:23;100268.20;;;17.88;80.34
51526;BME280;37611;51.794;21.590;2023-06-10T19:54:25;100270.04;;;17.84;81.15
51526;BME280;37611;51.794;21.590;2023-06-10T19:58:27;100280.53;;;17.78;82.56
51526;BME280;37611;51.794;21.590;2023-06-10T20:02:29;100279.82;;;17.69;84.08
51526;BME280;37611;51.794;21.590;2023-06-10T20:06:32;100279.09;;;17.63;84.90
51526;BME280;37611;51.794;21.590;2023-06-10T20:10:34;100282.17;;;17.61;86.03
51526;BME280;37611;51.794;21.590;2023-06-10T20:14:35;100278.65;;;17.60;86.58
51526;BME280;37611;51.794;21.590;2023-06-10T20:18:37;100274.79;;;17.58;86.45
51526;BME280;37611;51.794;21.590;2023-06-10T20:22:39;100275.79;;;17.60;86.51
51526;BME280;37611;51.794;21.590;2023-06-10T20:26:41;100275.27;;;17.61;85.96
51526;BME280;37611;51.794;21.590;2023-06-10T20:30:42;100281.35;;;17.65;86.22
51526;BME280;37611;51.794;21.590;2023-06-10T20:34:44;100285.88;;;17.69;86.58
51526;BME280;37611;51.794;21.590;2023-06-10T20:38:47;100286.61;;;17.69;86.70
51526;BME280;37611;51.794;21.590;2023-06-10T20:42:49;100285.27;;;17.71;86.66
51526;BME280;37611;51.794;21.590;2023-06-10T20:46:50;100283.23;;;17.72;86.74
51526;BME280;37611;51.794;21.590;2023-06-10T20:50:52;100286.66;;;17.76;86.85
51526;BME280;37611;51.794;21.590;2023-06-10T20:54:54;100286.49;;;17.76;86.86
51526;BME280;37611;51.794;21.590;2023-06-10T20:58:56;100281.64;;;17.76;87.03
51526;BME280;37611;51.794;21.590;2023-06-10T21:02:58;100284.50;;;17.77;87.19
51526;BME280;37611;51.794;21.590;2023-06-10T21:07:00;100283.83;;;17.81;87.09
51526;BME280;37611;51.794;21.590;2023-06-10T21:11:02;100290.17;;;17.80;87.25